createdAt,value
2022-08-18T00:02:06.663Z,99643.25
2022-08-18T00:04:48.663Z,99644.88
2022-08-18T00:07:24.459Z,99642.69
2022-08-18T00:09:55.081Z,99649.72
2022-08-18T00:12:45.462Z,99651.38
2022-08-18T00:15:18.032Z,99645.97
2022-08-18T00:17:48.787Z,99654.59
2022-08-18T00:20:24.407Z,99650.81
2022-08-18T00:22:55.941Z,99650.28
2022-08-18T00:25:27.070Z,99654.34
2022-08-18T00:27:57.473Z,99655.16
2022-08-18T00:30:27.584Z,99648.94
2022-08-18T00:32:59.827Z,99648.66
2022-08-18T00:35:37.658Z,99652.97
2022-08-18T00:38:23.350Z,99648.66
2022-08-18T00:40:57.674Z,99647.59
2022-08-18T00:43:42.044Z,99652.97
2022-08-18T00:46:17.350Z,99647.31
2022-08-18T00:48:48.420Z,99648.13
2022-08-18T00:51:51.658Z,99647.06
2022-08-18T00:54:27.768Z,99641.66
2022-08-18T00:57:02.275Z,99639.25
2022-08-18T00:59:37.386Z,99643.28
2022-08-18T01:02:11.758Z,99646.81
2022-08-18T01:04:56.730Z,99651.94
2022-08-18T01:07:38.227Z,99653.53
2022-08-18T01:10:09.245Z,99644.38
2022-08-18T01:12:44.939Z,99638.16
2022-08-18T01:15:29.484Z,99644.38
2022-08-18T01:18:23.027Z,99642.75
2022-08-18T01:21:33.165Z,99639.78
2022-08-18T01:24:06.812Z,99632.19
2022-08-18T01:26:51.181Z,99626.81
2022-08-18T01:29:22.219Z,99627.63
2022-08-18T01:31:57.061Z,99627.91
2022-08-18T01:34:29.616Z,99617.91
2022-08-18T01:37:00.631Z,99616.56
2022-08-18T01:41:23.343Z,99615.22
2022-08-18T01:42:21.211Z,99611.97
2022-08-18T01:44:52.635Z,99603.34
2022-08-18T01:47:22.648Z,99611.97
2022-08-18T01:49:52.183Z,99601.19
2022-08-18T01:52:23.656Z,99605.78
2022-08-18T01:54:53.793Z,99604.94
2022-08-18T01:57:24.540Z,99607.09
2022-08-18T01:59:55.212Z,99606.03
2022-08-18T02:02:29.160Z,99609.78
2022-08-18T02:05:07.264Z,99606.53
2022-08-18T02:07:38.859Z,99601.69
2022-08-18T02:10:16.527Z,99606.53
2022-08-18T02:12:46.880Z,99613.28
2022-08-18T02:15:17.950Z,99627.03
2022-08-18T02:17:49.147Z,99617.84
2022-08-18T02:20:21.128Z,99619.72
2022-08-18T02:22:52.010Z,99613.28
2022-08-18T02:25:23.282Z,99610.84
2022-08-18T02:27:53.737Z,99618.41
2022-08-18T02:30:24.006Z,99617.56
2022-08-18T02:32:54.271Z,99611.38
2022-08-18T02:35:24.312Z,99620.00
2022-08-18T02:37:54.584Z,99629.47
2022-08-18T02:40:24.828Z,99621.13
2022-08-18T02:42:55.555Z,99612.44
2022-08-18T02:45:26.590Z,99608.69
2022-08-18T02:47:59.571Z,99603.28
2022-08-18T02:50:29.920Z,99599.53
2022-08-18T02:53:00.430Z,99592.25
2022-08-18T02:55:31.071Z,99598.97
2022-08-18T02:58:03.751Z,99594.69
2022-08-18T03:00:34.064Z,99584.44
2022-08-18T03:03:05.485Z,99581.47
2022-08-18T03:05:36.847Z,99582.53
2022-08-18T03:08:07.762Z,99588.75
2022-08-18T03:10:38.436Z,99586.06
2022-08-18T03:13:08.794Z,99582.28
2022-08-18T03:15:38.815Z,99584.97
2022-08-18T03:18:08.951Z,99575.28
2022-08-18T03:20:39.167Z,99568.25
2022-08-18T03:23:11.855Z,99561.22
2022-08-18T03:25:52.869Z,99556.91
2022-08-18T03:28:24.212Z,99552.03
2022-08-18T03:30:54.577Z,99554.19
2022-08-18T03:33:23.928Z,99552.56
2022-08-18T03:35:54.247Z,99553.94
2022-08-18T03:38:24.958Z,99540.69
2022-08-18T03:40:56.149Z,99533.41
2022-08-18T03:43:51.020Z,99527.47
2022-08-18T03:46:25.491Z,99519.09
2022-08-18T03:48:55.904Z,99517.19
2022-08-18T03:51:29.965Z,99509.94
2022-08-18T03:54:23.327Z,99515.34
2022-08-18T03:56:58.325Z,99513.69
2022-08-18T03:59:36.207Z,99516.63
2022-08-18T04:02:27.744Z,99511.53
2022-08-18T04:05:09.700Z,99503.44
2022-08-18T04:07:55.561Z,99499.13
2022-08-18T04:10:26.652Z,99504.50
2022-08-18T04:12:56.664Z,99490.50
2022-08-18T04:15:27.145Z,99494.25
2022-08-18T04:18:06.012Z,99485.38
2022-08-18T04:20:37.140Z,99483.47
2022-08-18T04:23:07.249Z,99482.94
2022-08-18T04:25:37.301Z,99484.00
2022-08-18T04:28:06.700Z,99479.69
2022-08-18T04:30:37.984Z,99481.84
2022-08-18T04:33:08.126Z,99475.94
2022-08-18T04:35:38.117Z,99479.69
2022-08-18T04:38:08.838Z,99473.75
2022-08-18T04:40:39.729Z,99474.81
2022-08-18T04:43:16.525Z,99462.44
2022-08-18T04:45:52.303Z,99462.44
2022-08-18T04:48:22.886Z,99456.22
2022-08-18T04:50:53.350Z,99457.06
2022-08-18T04:53:41.554Z,99445.97
2022-08-18T04:56:11.668Z,99453.25
2022-08-18T04:58:41.682Z,99454.91
2022-08-18T05:01:11.880Z,99456.50
2022-08-18T05:03:50.080Z,99453.53
2022-08-18T05:06:20.939Z,99448.16
2022-08-18T05:08:51.080Z,99453.53
2022-08-18T05:11:22.941Z,99452.47
2022-08-18T05:13:57.143Z,99450.59
2022-08-18T05:16:28.537Z,99440.59
2022-08-18T05:19:01.238Z,99433.34
2022-08-18T05:21:38.269Z,99424.16
2022-08-18T05:24:10.093Z,99423.09
2022-08-18T05:26:43.006Z,99405.28
2022-08-18T05:29:19.154Z,99398.84
2022-08-18T05:31:52.231Z,99404.22
2022-08-18T05:34:23.574Z,99406.66
2022-08-18T05:37:05.826Z,99409.34
2022-08-18T05:39:48.231Z,99392.34
2022-08-18T05:42:22.416Z,99392.09
2022-08-18T05:44:55.805Z,99395.63
2022-08-18T05:47:30.974Z,99388.34
2022-08-18T05:50:06.175Z,99388.06
2022-08-18T05:53:02.747Z,99389.66
2022-08-18T05:56:05.449Z,99380.50
2022-08-18T05:58:51.609Z,99361.91
2022-08-18T06:01:38.306Z,99373.50
2022-08-18T06:04:33.277Z,99369.19
2022-08-18T06:07:07.243Z,99366.50
2022-08-18T06:09:47.217Z,99353.03
2022-08-18T06:12:29.229Z,99359.47
2022-08-18T06:15:20.617Z,99354.09
2022-08-18T06:18:02.153Z,99349.78
2022-08-18T06:20:32.960Z,99346.00
2022-08-18T06:23:27.236Z,99345.75
2022-08-18T06:26:16.334Z,99348.16
2022-08-18T06:29:02.204Z,99347.63
2022-08-18T06:31:58.252Z,99336.84
2022-08-18T06:34:38.710Z,99333.88
2022-08-18T06:37:33.320Z,99339.00
2022-08-18T06:40:03.605Z,99329.06
2022-08-18T06:42:36.527Z,99334.44
2022-08-18T06:45:19.596Z,99325.25
2022-08-18T06:48:02.633Z,99317.19
2022-08-18T06:50:45.831Z,99311.78
2022-08-18T06:53:26.933Z,99312.63
2022-08-18T06:55:58.782Z,99308.81
2022-08-18T06:58:32.814Z,99300.72
2022-08-18T07:01:07.915Z,99310.19
2022-08-18T07:03:38.412Z,99303.97
2022-08-18T07:06:22.658Z,99296.97
2022-08-18T07:08:55.507Z,99304.78
2022-08-18T07:11:30.111Z,99300.19
2022-08-18T07:14:30.000Z,99305.59
2022-08-18T07:17:42.851Z,99301.25
2022-08-18T07:20:26.943Z,99303.97
2022-08-18T07:23:01.016Z,99300.47
2022-08-18T07:25:39.975Z,99295.88
2022-08-18T07:28:28.563Z,99291.31
2022-08-18T07:31:17.748Z,99284.81
2022-08-18T07:34:03.415Z,99283.75
2022-08-18T07:36:42.661Z,99273.75
2022-08-18T07:39:40.619Z,99262.19
2022-08-18T07:43:02.031Z,99264.88
2022-08-18T07:45:38.504Z,99249.22
2022-08-18T07:51:38.299Z,99241.41
2022-08-18T07:54:31.207Z,99236.56
2022-08-18T07:57:20.325Z,99229.56
2022-08-18T07:59:58.662Z,99227.16
2022-08-18T08:02:50.572Z,99223.66
2022-08-18T08:06:02.479Z,99219.06
2022-08-18T08:08:52.971Z,99220.94
2022-08-18T08:11:45.561Z,99236.31
2022-08-18T08:14:21.691Z,99225.78
2022-08-18T08:17:18.573Z,99225.78
2022-08-18T08:20:04.689Z,99222.03
2022-08-18T08:23:13.403Z,99220.94
2022-08-18T08:26:48.897Z,99226.34
2022-08-18T08:29:25.199Z,99229.31
2022-08-18T08:32:05.955Z,99227.41
2022-08-18T08:34:54.554Z,99205.03
2022-08-18T08:37:44.023Z,99208.53
2022-08-18T08:40:55.871Z,99207.47
2022-08-18T08:44:17.377Z,99208.28
2022-08-18T08:50:23.902Z,99202.09
2022-08-18T08:53:03.652Z,99204.78
2022-08-18T08:55:47.477Z,99195.59
2022-08-18T08:58:41.334Z,99194.78
2022-08-18T09:01:35.914Z,99199.13
2022-08-18T09:05:07.510Z,99195.59
2022-08-18T09:07:52.921Z,99192.91
2022-08-18T09:10:43.698Z,99199.91
2022-08-18T09:13:50.076Z,99199.13
2022-08-18T09:16:48.805Z,99192.63
2022-08-18T09:19:46.507Z,99184.25
2022-08-18T09:22:18.776Z,99173.47
2022-08-18T09:24:54.218Z,99170.78
2022-08-18T09:27:48.542Z,99165.41
2022-08-18T09:30:51.292Z,99169.72
2022-08-18T09:37:55.352Z,99157.31
2022-08-18T09:41:03.300Z,99148.41
2022-08-18T09:47:47.986Z,99146.78
2022-08-18T09:50:28.304Z,99144.91
2022-08-18T09:53:56.700Z,99136.00
2022-08-18T09:56:55.678Z,99136.53
2022-08-18T09:59:35.256Z,99141.66
2022-08-18T10:02:38.626Z,99134.66
2022-08-18T10:11:12.096Z,99137.38
2022-08-18T10:13:25.898Z,99128.72
2022-08-18T10:17:13.522Z,99133.03
2022-08-18T10:20:07.228Z,99126.59
2022-08-18T10:22:51.148Z,99122.25
2022-08-18T10:25:44.155Z,99116.59
2022-08-18T10:28:52.547Z,99113.09
2022-08-18T10:31:24.168Z,99110.41
2022-08-18T10:34:00.499Z,99110.09
2022-08-18T10:37:06.283Z,99113.91
2022-08-18T10:39:43.986Z,99118.19
2022-08-18T10:42:40.063Z,99119.00
2022-08-18T10:46:25.219Z,99119.81
2022-08-18T10:52:23.073Z,99117.91
2022-08-18T10:55:47.726Z,99118.75
2022-08-18T10:59:16.004Z,99116.84
2022-08-18T11:05:25.202Z,99122.25
2022-08-18T11:08:28.004Z,99120.34
2022-08-18T11:11:24.562Z,99110.66
2022-08-18T11:13:59.820Z,99115.75
2022-08-18T11:16:49.764Z,99116.28
2022-08-18T11:19:25.969Z,99120.88
2022-08-18T11:21:56.981Z,99112.50
2022-08-18T11:24:34.026Z,99115.72
2022-08-18T11:30:05.686Z,99108.47
2022-08-18T11:32:51.825Z,99118.16
2022-08-18T11:35:32.788Z,99113.56
2022-08-18T11:38:23.265Z,99114.38
2022-08-18T11:41:13.554Z,99113.28
2022-08-18T11:43:47.565Z,99108.72
2022-08-18T11:49:31.330Z,99106.81
2022-08-18T11:52:19.817Z,99112.19
2022-08-18T11:55:16.432Z,99114.63
2022-08-18T11:57:58.991Z,99113.81
2022-08-18T12:00:48.253Z,99114.91
2022-08-18T12:03:46.478Z,99115.16
2022-08-18T12:06:33.877Z,99107.09
2022-08-18T12:09:37.008Z,99103.31
2022-08-18T12:12:20.667Z,99093.59
2022-08-18T12:15:13.615Z,99103.03
2022-08-18T12:17:52.667Z,99101.94
2022-08-18T12:20:25.014Z,99094.66
2022-08-18T12:23:00.839Z,99086.56
2022-08-18T12:25:34.843Z,99084.41
2022-08-18T12:28:11.094Z,99082.25
2022-08-18T12:30:42.357Z,99069.03
2022-08-18T12:33:18.198Z,99065.78
2022-08-18T12:35:59.521Z,99076.28
2022-08-18T12:38:30.562Z,99076.28
2022-08-18T12:46:46.432Z,99069.78
2022-08-18T12:49:26.983Z,99068.19
2022-08-18T12:51:57.168Z,99062.50
2022-08-18T12:54:35.061Z,99059.81
2022-08-18T12:57:11.194Z,99055.22
2022-08-18T12:59:41.770Z,99053.06
2022-08-18T13:02:12.952Z,99050.63
2022-08-18T13:04:43.453Z,99057.66
2022-08-18T13:07:18.922Z,99053.34
2022-08-18T13:09:53.586Z,99054.13
2022-08-18T13:12:27.531Z,99054.13
2022-08-18T13:14:59.535Z,99046.03
2022-08-18T13:17:33.626Z,99044.97
2022-08-18T13:20:09.694Z,99055.75
2022-08-18T13:22:52.137Z,99042.28
2022-08-18T13:25:32.975Z,99033.91
2022-08-18T13:28:12.626Z,99029.59
2022-08-18T13:30:47.007Z,99033.91
2022-08-18T13:33:56.365Z,99032.00
2022-08-18T13:36:10.733Z,99021.50
2022-08-18T13:38:44.399Z,99033.91
2022-08-18T13:41:15.760Z,99034.69
2022-08-18T13:43:58.377Z,99041.72
2022-08-18T13:46:35.606Z,99021.22
2022-08-18T13:49:15.596Z,98997.72
2022-08-18T13:51:51.823Z,99012.31
2022-08-18T13:54:35.213Z,99004.22
2022-08-18T13:57:15.867Z,99007.72
2022-08-18T14:00:02.345Z,99025.81
2022-08-18T14:02:43.121Z,99016.88
2022-08-18T14:05:17.743Z,99021.50
2022-08-18T14:07:49.282Z,99014.19
2022-08-18T14:10:29.283Z,99000.72
2022-08-18T14:13:19.939Z,99006.94
2022-08-18T14:15:59.535Z,99005.03
2022-08-18T14:18:32.081Z,99003.41
2022-08-18T14:21:23.058Z,99000.72
2022-08-18T14:24:14.625Z,99004.50
2022-08-18T14:26:50.708Z,98999.63
2022-08-18T14:29:46.479Z,98998.00
2022-08-18T14:32:28.519Z,98990.22
2022-08-18T14:35:32.978Z,98987.22
2022-08-18T14:37:57.080Z,98980.50
2022-08-18T14:40:30.305Z,98988.31
2022-08-18T14:43:08.589Z,98981.31
2022-08-18T14:45:58.238Z,98987.53
2022-08-18T14:48:50.706Z,98992.69
2022-08-18T14:51:35.028Z,99005.34
2022-08-18T14:54:09.418Z,99009.41
2022-08-18T14:56:49.584Z,99003.50
2022-08-18T14:59:21.179Z,98996.78
2022-08-18T15:01:51.910Z,99001.38
2022-08-18T15:04:24.338Z,98994.88
2022-08-18T15:06:56.345Z,98983.00
2022-08-18T15:09:29.005Z,98975.44
2022-08-18T15:12:01.419Z,98961.66
2022-08-18T15:14:36.335Z,98958.69
2022-08-18T15:17:18.894Z,98949.53
2022-08-18T15:20:01.227Z,98944.13
2022-08-18T15:22:50.659Z,98939.53
2022-08-18T15:25:43.467Z,98938.75
2022-08-18T15:28:27.796Z,98930.66
2022-08-18T15:33:51.780Z,98945.22
2022-08-18T15:36:29.332Z,98943.59
2022-08-18T15:39:02.246Z,98937.13
2022-08-18T15:41:46.657Z,98936.59
2022-08-18T15:44:29.767Z,98933.13
2022-08-18T15:47:09.916Z,98933.13
2022-08-18T15:49:44.691Z,98927.72
2022-08-18T15:52:17.454Z,98927.72
2022-08-18T15:54:52.526Z,98931.50
2022-08-18T15:57:39.699Z,98934.19
2022-08-18T16:00:18.593Z,98922.06
2022-08-18T16:02:58.448Z,98917.78
2022-08-18T16:05:45.326Z,98916.97
2022-08-18T16:08:19.329Z,98902.66
2022-08-18T16:10:58.161Z,98911.84
2022-08-18T16:13:34.193Z,98922.66
2022-08-18T16:16:29.220Z,98919.13
2022-08-18T16:19:09.486Z,98915.63
2022-08-18T16:21:41.309Z,98915.63
2022-08-18T16:24:14.534Z,98918.03
2022-08-18T16:26:47.195Z,98914.56
2022-08-18T16:29:18.957Z,98908.34
2022-08-18T16:31:52.380Z,98918.03
2022-08-18T16:34:23.357Z,98909.97
2022-08-18T16:36:53.830Z,98914.56
2022-08-18T16:39:25.771Z,98921.53
2022-08-18T16:41:56.952Z,98921.31
2022-08-18T16:44:34.136Z,98916.19
2022-08-18T16:47:17.238Z,98921.06
2022-08-18T16:49:50.100Z,98917.59
2022-08-18T16:52:23.289Z,98932.13
2022-08-18T16:54:57.702Z,98931.34
2022-08-18T16:57:54.102Z,98929.16
2022-08-18T17:00:44.006Z,98944.53
2022-08-18T17:03:32.624Z,98941.84
2022-08-18T17:06:09.187Z,98940.22
2022-08-18T17:08:44.971Z,98948.31
2022-08-18T17:11:22.199Z,98947.50
2022-08-18T17:13:54.053Z,98936.44
2022-08-18T17:16:27.597Z,98939.13
2022-08-18T17:19:01.770Z,98952.91
2022-08-18T17:21:45.950Z,98951.59
2022-08-18T17:24:17.987Z,98951.03
2022-08-18T17:26:57.061Z,98956.44
2022-08-18T17:29:46.609Z,98965.63
2022-08-18T17:32:26.912Z,98956.72
2022-08-18T17:35:05.569Z,98958.03
2022-08-18T17:37:38.717Z,98957.78
2022-08-18T17:40:40.393Z,98962.06
2022-08-18T17:43:16.638Z,98957.78
2022-08-18T17:45:51.196Z,98964.25
2022-08-18T17:48:35.709Z,98962.66
2022-08-18T17:51:35.846Z,98977.72
2022-08-18T17:54:34.140Z,98984.22
2022-08-18T17:57:09.731Z,98977.19
2022-08-18T18:00:12.549Z,98983.69
2022-08-18T18:02:46.968Z,98980.75
2022-08-18T18:05:20.649Z,98977.78
2022-08-18T18:07:51.868Z,98975.63
2022-08-18T18:10:31.430Z,98976.19
2022-08-18T18:13:32.905Z,98975.94
2022-08-18T18:16:23.280Z,98983.22
2022-08-18T18:19:05.586Z,98976.22
2022-08-18T18:22:01.049Z,98977.28
2022-08-18T18:24:35.893Z,98988.91
2022-08-18T18:27:32.921Z,98981.59
2022-08-18T18:30:07.633Z,98980.28
2022-08-18T18:32:59.406Z,98972.47
2022-08-18T18:35:34.138Z,98982.44
2022-08-18T18:38:27.745Z,98978.94
2022-08-18T18:41:15.498Z,98963.31
2022-08-18T18:43:52.676Z,98974.09
2022-08-18T18:46:35.642Z,98970.88
2022-08-18T18:49:13.350Z,98978.72
2022-08-18T18:52:26.695Z,98971.50
2022-08-18T18:55:05.991Z,98975.00
2022-08-18T18:57:51.841Z,98976.94
2022-08-18T19:00:53.724Z,98977.75
2022-08-18T19:03:35.060Z,98969.94
2022-08-18T19:06:36.416Z,98972.09
2022-08-18T19:09:23.302Z,98969.41
2022-08-18T19:12:14.648Z,98972.13
2022-08-18T19:15:00.669Z,98968.09
2022-08-18T19:17:55.590Z,98979.16
2022-08-18T19:22:01.674Z,98989.66
2022-08-18T19:23:48.044Z,98995.03
2022-08-18T19:26:35.278Z,98993.16
2022-08-18T19:29:16.030Z,98995.84
2022-08-18T19:32:04.855Z,98995.03
2022-08-18T19:34:47.605Z,98993.94
2022-08-18T19:37:31.580Z,99003.66
2022-08-18T19:40:16.721Z,98997.75
2022-08-18T19:43:30.981Z,99005.81
2022-08-18T19:46:12.317Z,99001.78
2022-08-18T19:48:48.543Z,99007.44
2022-08-18T19:51:45.782Z,99014.19
2022-08-18T19:54:25.704Z,99020.91
2022-08-18T19:57:05.742Z,99007.44
2022-08-18T20:00:13.352Z,99006.38
2022-08-18T20:02:54.280Z,98997.50
2022-08-18T20:05:32.818Z,99002.38
2022-08-18T20:08:26.927Z,99008.28
2022-08-18T20:11:41.739Z,99013.94
2022-08-18T20:14:17.232Z,99009.34
2022-08-18T20:17:06.945Z,99018.22
2022-08-18T20:19:58.637Z,99025.25
2022-08-18T20:22:46.622Z,99031.41
2022-08-18T20:25:19.797Z,99043.81
2022-08-18T20:28:24.814Z,99037.63
2022-08-18T20:31:08.552Z,99041.13
2022-08-18T20:33:47.520Z,99048.69
2022-08-18T20:36:38.977Z,99046.53
2022-08-18T20:39:36.352Z,99050.84
2022-08-18T20:42:30.576Z,99053.53
2022-08-18T20:45:24.941Z,99055.66
2022-08-18T20:48:30.484Z,99058.06
2022-08-18T20:51:04.753Z,99060.50
2022-08-18T20:53:50.973Z,99061.59
2022-08-18T20:56:45.454Z,99063.75
2022-08-18T20:59:22.807Z,99073.16
2022-08-18T21:02:02.165Z,99062.66
2022-08-18T21:04:38.157Z,99053.25
2022-08-18T21:07:36.511Z,99067.53
2022-08-18T21:10:26.311Z,99067.53
2022-08-18T21:12:59.230Z,99064.84
2022-08-18T21:15:30.586Z,99072.66
2022-08-18T21:18:08.352Z,99069.69
2022-08-18T21:20:39.065Z,99081.00
2022-08-18T21:23:12.917Z,99085.84
2022-08-18T21:25:55.189Z,99086.38
2022-08-18T21:28:29.649Z,99099.28
2022-08-18T21:31:42.230Z,99099.28
2022-08-18T21:34:06.116Z,99107.38
2022-08-18T21:36:38.469Z,99109.53
2022-08-18T21:39:17.190Z,99113.84
2022-08-18T21:41:49.504Z,99131.59
2022-08-18T21:44:36.377Z,99127.84
2022-08-18T21:47:21.772Z,99128.09
2022-08-18T21:50:24.422Z,99131.06
2022-08-18T21:53:15.809Z,99133.50
2022-08-18T21:55:51.380Z,99134.03
2022-08-18T21:58:33.986Z,99140.47
2022-08-18T22:01:22.575Z,99136.19
2022-08-18T22:04:22.042Z,99129.44
2022-08-18T22:07:04.231Z,99141.28
2022-08-18T22:09:54.703Z,99151.50
2022-08-18T22:12:52.499Z,99158.00
2022-08-18T22:15:42.231Z,99168.75
2022-08-18T22:18:20.072Z,99174.66
2022-08-18T22:20:56.209Z,99177.91
2022-08-18T22:23:55.784Z,99183.28
2022-08-18T22:26:34.493Z,99194.03
2022-08-18T22:29:28.225Z,99199.41
2022-08-18T22:31:58.423Z,99218.78
2022-08-18T22:34:31.624Z,99223.63
2022-08-18T22:37:13.973Z,99223.09
2022-08-18T22:39:57.838Z,99228.47
2022-08-18T22:42:33.343Z,99240.59
2022-08-18T22:45:06.504Z,99233.81
2022-08-18T22:47:42.884Z,99250.84
2022-08-18T22:50:15.257Z,99256.44
2022-08-18T22:52:50.875Z,99272.34
2022-08-18T22:55:23.721Z,99275.81
2022-08-18T22:57:55.767Z,99287.72
2022-08-18T23:00:27.614Z,99290.66
2022-08-18T23:02:58.713Z,99285.00
2022-08-18T23:05:29.802Z,99297.59
2022-08-18T23:07:59.833Z,99295.19
2022-08-18T23:10:29.967Z,99294.34
2022-08-18T23:13:04.242Z,99310.81
2022-08-18T23:15:49.517Z,99317.84
2022-08-18T23:18:21.925Z,99330.75
2022-08-18T23:20:56.686Z,99331.28
2022-08-18T23:23:29.061Z,99323.75
2022-08-18T23:26:00.367Z,99337.78
2022-08-18T23:28:30.626Z,99333.94
2022-08-18T23:31:00.786Z,99319.94
2022-08-18T23:33:30.806Z,99325.03
2022-08-18T23:36:00.892Z,99328.81
2022-08-18T23:38:31.546Z,99346.59
2022-08-18T23:41:02.117Z,99349.31
2022-08-18T23:43:32.826Z,99351.47
2022-08-18T23:46:04.017Z,99351.72
2022-08-18T23:48:34.064Z,99364.13
2022-08-18T23:51:04.378Z,99382.22
2022-08-18T23:53:34.425Z,99386.78
2022-08-18T23:56:04.520Z,99387.56
2022-08-18T23:58:34.492Z,99390.00
